Погода Марсана неделю

Аура, Мальта

12 - 18 июля
  • 12июля
    Сегодня
    +24°
    +34°
    Ясно и безоблачно
    ВремяПогодаТемператураВлажностьДавлениеВетер, м/сВероятность осадков
    02:00Ясно и безоблачно+26°C87 %761 мм2.0 м/с2 %
    05:00Ясно и безоблачно+25°C88 %760 мм1.6 м/с2 %
    08:00Ясно и безоблачно+29°C73 %760 мм2.1 м/с2 %
    11:00Ясно и безоблачно+33°C46 %761 мм4.3 м/с2 %
    14:00Ясно и безоблачно+34°C37 %760 мм4.5 м/с2 %
    17:00Ясно и безоблачно+34°C40 %760 мм4.0 м/с2 %
    20:00Ясно и безоблачно+30°C50 %759 мм3.0 м/с2 %
    23:00Ясно и безоблачно+28°C60 %759 мм2.0 м/с2 %
  • 13июля
    Суббота
    +24°
    +34°
    Ясно и безоблачно
    ВремяПогодаТемператураВлажностьДавлениеВетер, м/сВероятность осадков
    02:00Ясно и безоблачно+26°C77 %759 мм1.8 м/с1 %
    05:00Ясно и безоблачно+25°C89 %759 мм2.0 м/с1 %
    08:00Ясно и безоблачно+29°C70 %759 мм2.7 м/с1 %
    11:00Ясно и безоблачно+33°C40 %759 мм3.8 м/с1 %
    14:00Ясно и безоблачно+34°C34 %759 мм4.4 м/с1 %
    17:00Ясно и безоблачно+34°C37 %759 мм3.9 м/с1 %
    20:00Ясно и безоблачно+30°C44 %758 мм3.4 м/с1 %
    23:00Ясно и безоблачно+27°C59 %759 мм1.8 м/с1 %
  • 14июля
    Воскресенье
    +25°
    +34°
    Ясно и безоблачно
    ВремяПогодаТемператураВлажностьДавлениеВетер, м/сВероятность осадков
    02:00Ясно и безоблачно+26°C75 %759 мм1.9 м/с1 %
    05:00Ясно и безоблачно+24°C92 %759 мм2.0 м/с1 %
    08:00Ясно и безоблачно+29°C78 %759 мм2.2 м/с1 %
    11:00Ясно и безоблачно+33°C44 %760 мм3.7 м/с1 %
    14:00Ясно и безоблачно+34°C40 %759 мм4.9 м/с1 %
    17:00Ясно и безоблачно+34°C38 %758 мм4.7 м/с1 %
    20:00Ясно и безоблачно+30°C48 %758 мм3.3 м/с1 %
    23:00Ясно и безоблачно+28°C67 %759 мм2.0 м/с1 %
  • 15июля
    Понедельник
    +25°
    +35°
    Ясно и безоблачно
    ВремяПогодаТемператураВлажностьДавлениеВетер, м/сВероятность осадков
    02:00Ясно и безоблачно+26°C81 %759 мм2.4 м/с1 %
    05:00Ясно и безоблачно+25°C91 %758 мм2.4 м/с1 %
    08:00Ясно и безоблачно+29°C74 %759 мм2.6 м/с1 %
    11:00Ясно и безоблачно+34°C40 %760 мм3.4 м/с1 %
    14:00Ясно и безоблачно+34°C36 %759 мм2.8 м/с1 %
    17:00Ясно и безоблачно+34°C43 %759 мм3.5 м/с1 %
    20:00Ясно и безоблачно+30°C58 %759 мм2.8 м/с1 %
    23:00Ясно и безоблачно+28°C78 %760 мм2.3 м/с1 %
  • 16июля
    Вторник
    +23°
    +36°
    Ясно и безоблачно
    ВремяПогодаТемператураВлажностьДавлениеВетер, м/сВероятность осадков
    02:00Ясно и безоблачно+27°C84 %759 мм2.1 м/с1 %
    05:00Ясно и безоблачно+26°C93 %759 мм2.4 м/с1 %
    08:00Ясно и безоблачно+29°C82 %759 мм2.8 м/с1 %
    11:00Ясно и безоблачно+34°C47 %760 мм3.6 м/с1 %
    14:00Ясно и безоблачно+36°C43 %760 мм4.0 м/с1 %
    17:00Ясно и безоблачно+34°C51 %759 мм4.6 м/с1 %
    20:00Ясно и безоблачно+30°C64 %759 мм4.1 м/с1 %
    23:00Ясно и безоблачно+28°C74 %760 мм3.3 м/с1 %
Мы используем cookies
Соглашаюсь